Time;durP1;ratioP1;P1;durP2;ratioP2;P2;SDS_P1;SDS_P2;PMS_P1;PMS_P2;Temp;Humidity;BMP_temperature;BMP_pressure;BME280_temperature;BME280_humidity;BME280_pressure;Samples;Min_cycle;Max_cycle;Signal;HPM_P1;HPM_P2
2022/09/13 00:00:43;;;;;;;2.97;2.73;;;;;;;11.14;91.21;97650.22;6182405;28;20584;-40
2022/09/13 00:03:45;;;;;;;4.90;3.30;;;;;;;11.06;91.34;97637.66;6182996;28;20228;-41
2022/09/13 00:06:47;;;;;;;4.23;2.57;;;;;;;10.97;91.36;97637.56;6182861;28;20240;-40
2022/09/13 00:09:49;;;;;;;4.30;2.57;;;;;;;10.89;91.72;97629.41;6183272;28;20293;-42
2022/09/13 00:12:51;;;;;;;2.83;2.37;;;;;;;10.84;91.96;97635.09;6182037;28;20608;-41
2022/09/13 00:15:54;;;;;;;2.53;2.30;;;;;;;10.77;92.24;97627.81;6181253;28;20239;-41
2022/09/13 00:18:56;;;;;;;5.20;2.60;;;;;;;10.72;92.22;97630.81;6182415;28;20231;-41
2022/09/13 00:21:58;;;;;;;3.07;2.60;;;;;;;10.66;92.43;97621.59;6179583;28;20225;-41
2022/09/13 00:25:01;;;;;;;3.03;2.47;;;;;;;10.62;92.37;97624.59;6181915;28;20359;-41
2022/09/13 00:28:04;;;;;;;3.37;2.60;;;;;;;10.57;92.20;97616.25;6181070;28;20262;-41
2022/09/13 00:31:08;;;;;;;3.10;2.80;;;;;;;10.46;92.51;97625.03;6181387;28;20240;-40
2022/09/13 00:34:10;;;;;;;3.13;2.60;;;;;;;10.40;92.84;97619.38;6181198;28;20704;-41
2022/09/13 00:37:12;;;;;;;5.40;2.67;;;;;;;10.34;92.74;97616.28;6181744;28;20737;-42
2022/09/13 00:40:15;;;;;;;2.40;2.20;;;;;;;10.32;92.58;97612.09;6181546;28;20330;-41
2022/09/13 00:43:40;;;;;;;5.70;2.10;;;;;;;10.26;92.37;97612.59;6181595;28;20603;-40
2022/09/13 00:46:49;;;;;;;3.30;2.10;;;;;;;10.16;92.80;97609.81;6181610;28;20241;-41
2022/09/13 00:50:13;;;;;;;2.30;2.10;;;;;;;10.09;92.22;97611.25;6181155;28;20230;-41
2022/09/13 00:53:24;;;;;;;2.40;2.20;;;;;;;10.00;92.34;97602.28;6164155;28;20232;-42
2022/09/13 00:56:47;;;;;;;2.50;2.30;;;;;;;9.93;93.09;97595.81;6181403;28;20608;-41
2022/09/13 01:04:11;;;;;;;2.80;2.40;;;;;;;9.78;92.64;97598.84;6180144;28;20238;-41
2022/09/13 01:07:15;;;;;;;2.43;2.17;;;;;;;9.76;92.60;97595.47;6178925;28;20335;-40
2022/09/13 01:10:18;;;;;;;2.60;2.40;;;;;;;9.73;93.01;97587.81;6181333;28;20706;-42
2022/09/13 01:13:23;;;;;;;2.60;2.40;;;;;;;9.69;92.96;97591.63;6180288;28;20701;-40
2022/09/13 01:16:25;;;;;;;2.93;2.37;;;;;;;9.65;92.69;97590.19;6180627;28;20706;-41
2022/09/13 01:19:28;;;;;;;2.43;2.23;;;;;;;9.60;93.03;97593.19;6179336;28;20237;-42
2022/09/13 01:23:05;;;;;;;2.30;2.10;;;;;;;9.60;92.75;97587.91;6180680;28;20265;-41
2022/09/13 01:26:52;;;;;;;2.87;2.20;;;;;;;9.56;92.55;97583.84;6181150;28;20239;-41
2022/09/13 01:30:11;;;;;;;3.23;2.33;;;;;;;9.56;92.89;97582.06;6194578;28;20257;-41
2022/09/13 01:33:33;;;;;;;2.83;2.40;;;;;;;9.55;92.98;97576.91;6180340;28;20263;-42
2022/09/13 01:36:59;;;;;;;4.37;2.20;;;;;;;9.53;92.34;97579.66;6184530;28;20226;-41
2022/09/13 01:40:11;;;;;;;2.40;2.20;;;;;;;9.49;92.13;97572.09;6187099;28;20247;-43
2022/09/13 01:43:25;;;;;;;2.53;2.33;;;;;;;9.41;92.46;97571.84;6185365;28;20287;-41
2022/09/13 01:46:42;;;;;;;2.63;2.20;;;;;;;9.38;92.99;97561.59;6185404;28;20319;-41
2022/09/13 01:50:09;;;;;;;3.20;2.10;;;;;;;9.41;92.93;97558.69;6186145;28;20318;-41
2022/09/13 01:53:30;;;;;;;2.37;2.17;;;;;;;9.38;93.15;97554.53;6178506;28;20322;-42
2022/09/13 01:56:38;;;;;;;2.57;2.30;;;;;;;9.37;92.20;97554.63;6185218;28;20788;-41
2022/09/13 01:59:56;;;;;;;2.90;2.60;;;;;;;9.34;92.32;97557.50;6185128;28;20609;-42
2022/09/13 02:03:06;;;;;;;4.43;2.63;;;;;;;9.29;92.05;97559.63;6185810;28;20644;-41
2022/09/13 02:06:14;;;;;;;2.40;2.10;;;;;;;9.25;92.14;97545.88;6184201;28;20233;-41
2022/09/13 02:09:22;;;;;;;3.50;2.40;;;;;;;9.24;92.45;97538.94;6185232;28;20288;-41
2022/09/13 02:12:27;;;;;;;3.57;2.77;;;;;;;9.20;92.64;97543.59;6184827;28;20230;-41
2022/09/13 02:15:50;;;;;;;3.10;2.57;;;;;;;9.17;93.18;97535.09;6184462;28;20727;-40
2022/09/13 02:18:58;;;;;;;2.83;2.30;;;;;;;9.15;92.64;97523.84;6186030;28;20229;-41
2022/09/13 02:22:04;;;;;;;2.33;2.13;;;;;;;9.12;92.44;97529.34;6199194;28;20623;-40
2022/09/13 02:25:11;;;;;;;2.47;2.27;;;;;;;9.07;92.31;97518.34;6160721;28;20734;-41
2022/09/13 02:28:20;;;;;;;3.63;2.60;;;;;;;9.02;93.06;97521.31;6182926;28;20320;-42
2022/09/13 02:31:32;;;;;;;3.77;2.70;;;;;;;9.02;92.67;97515.22;6189593;28;20247;-43
2022/09/13 02:34:53;;;;;;;2.77;2.47;;;;;;;8.95;92.64;97516.63;6182501;28;20249;-43
2022/09/13 02:38:01;;;;;;;3.57;2.40;;;;;;;8.91;92.98;97510.75;6184587;28;20722;-44
2022/09/13 02:41:14;;;;;;;2.90;2.37;;;;;;;8.88;93.20;97511.81;6185218;28;20271;-42
2022/09/13 02:44:28;;;;;;;4.90;2.40;;;;;;;8.83;92.92;97516.63;6183924;28;20273;-43
2022/09/13 02:48:00;;;;;;;2.63;2.40;;;;;;;8.79;93.68;97515.16;6188829;28;20233;-43
2022/09/13 02:51:11;;;;;;;4.60;2.83;;;;;;;8.80;93.14;97511.56;6182990;28;20241;-43
2022/09/13 02:54:35;;;;;;;2.80;2.60;;;;;;;8.78;93.36;97512.66;6183238;28;20218;-43
2022/09/13 02:57:45;;;;;;;3.37;2.17;;;;;;;8.74;93.13;97516.47;6183887;28;20303;-43
2022/09/13 03:00:47;;;;;;;3.33;2.57;;;;;;;8.69;93.31;97508.91;6183827;28;20227;-42
2022/09/13 03:03:52;;;;;;;4.27;2.90;;;;;;;8.67;93.96;97507.38;6183861;28;20225;-43
2022/09/13 03:06:54;;;;;;;2.80;2.53;;;;;;;8.63;94.01;97501.50;6182849;28;20225;-44
2022/09/13 03:10:08;;;;;;;3.30;3.00;;;;;;;8.64;93.31;97502.34;6183770;28;20231;-43
2022/09/13 03:13:27;;;;;;;2.83;2.60;;;;;;;8.63;94.11;97501.50;6183576;28;20770;-42
2022/09/13 03:17:03;;;;;;;3.37;2.50;;;;;;;8.64;94.44;97500.53;6184255;28;20776;-43
2022/09/13 03:20:11;;;;;;;3.20;2.90;;;;;;;8.63;93.36;97498.03;6183313;28;20644;-42
2022/09/13 03:23:39;;;;;;;3.10;2.80;;;;;;;8.62;94.23;97499.81;6183350;28;20605;-42
2022/09/13 03:26:44;;;;;;;3.27;2.93;;;;;;;8.60;94.25;97498.25;6183613;28;20327;-43
2022/09/13 03:30:06;;;;;;;3.47;2.87;;;;;;;8.58;94.72;97487.88;6183324;28;20268;-44
2022/09/13 03:33:29;;;;;;;3.77;2.70;;;;;;;8.58;94.65;97487.03;6182294;28;20701;-42
2022/09/13 03:36:52;;;;;;;3.87;3.13;;;;;;;8.56;94.31;97483.66;6182541;28;20692;-42
2022/09/13 03:40:03;;;;;;;2.97;2.67;;;;;;;8.56;94.90;97492.41;6180088;28;20291;-42
2022/09/13 03:43:34;;;;;;;4.20;3.70;;;;;;;8.57;95.47;97491.44;6182586;28;20612;-43
2022/09/13 03:46:41;;;;;;;4.27;3.43;;;;;;;8.55;94.99;97479.34;6182844;28;20236;-43
2022/09/13 03:49:44;;;;;;;3.17;2.87;;;;;;;8.53;94.68;97490.00;6182875;28;20246;-43
2022/09/13 03:52:51;;;;;;;3.77;2.80;;;;;;;8.53;95.44;97490.00;6183216;28;20229;-42
2022/09/13 03:55:53;;;;;;;3.70;3.30;;;;;;;8.52;95.33;97493.56;6182556;28;20225;-42
2022/09/13 03:58:55;;;;;;;3.50;3.20;;;;;;;8.52;95.50;97486.53;6182325;28;20601;-42
2022/09/13 04:01:57;;;;;;;3.70;3.13;;;;;;;8.54;94.94;97490.81;6182182;28;20228;-44
2022/09/13 04:05:00;;;;;;;5.80;3.20;;;;;;;8.55;95.28;97500.41;6181902;28;20233;-43
2022/09/13 04:08:06;;;;;;;3.43;3.13;;;;;;;8.56;95.51;97500.28;6181646;28;20394;-42
2022/09/13 04:11:10;;;;;;;3.70;3.40;;;;;;;8.51;95.72;97495.34;6183966;28;20304;-43
2022/09/13 04:14:12;;;;;;;3.60;3.30;;;;;;;8.50;95.66;97493.69;6182889;28;20327;-43
2022/09/13 04:17:14;;;;;;;4.07;3.30;;;;;;;8.50;95.15;97488.41;6182274;28;20778;-42
2022/09/13 04:20:16;;;;;;;4.07;3.53;;;;;;;8.49;95.94;97493.78;6182217;28;20231;-42
2022/09/13 04:23:18;;;;;;;5.97;3.27;;;;;;;8.48;95.35;97508.72;6181844;28;20240;-42
2022/09/13 04:26:20;;;;;;;3.83;3.37;;;;;;;8.46;95.83;97497.50;6181404;28;20717;-43
2022/09/13 04:29:24;;;;;;;3.50;3.20;;;;;;;8.46;95.06;97501.94;6181954;28;20314;-42
2022/09/13 04:32:27;;;;;;;4.00;3.63;;;;;;;8.45;95.93;97495.81;6182770;28;20229;-42
2022/09/13 04:35:29;;;;;;;3.90;3.50;;;;;;;8.46;95.57;97508.03;6181285;28;20229;-42
2022/09/13 04:38:31;;;;;;;3.90;3.50;;;;;;;8.47;95.62;97498.34;6181558;28;20672;-43
2022/09/13 04:41:33;;;;;;;4.07;3.67;;;;;;;8.46;95.19;97494.03;6181349;28;20222;-42
2022/09/13 04:44:35;;;;;;;5.33;3.80;;;;;;;8.43;95.38;97489.00;6181745;28;20229;-42
2022/09/13 04:47:37;;;;;;;3.60;3.30;;;;;;;8.45;95.92;97493.19;6182278;28;21078;-43
2022/09/13 04:50:39;;;;;;;4.77;3.80;;;;;;;8.47;95.51;97482.56;6182313;28;20390;-43
2022/09/13 04:53:45;;;;;;;4.00;3.60;;;;;;;8.49;95.17;97491.16;6181096;28;20229;-43
2022/09/13 04:56:48;;;;;;;4.43;3.73;;;;;;;8.46;95.52;97489.63;6180778;28;20245;-42
2022/09/13 04:59:50;;;;;;;6.67;3.90;;;;;;;8.46;95.84;97501.94;6181520;28;20236;-44
2022/09/13 05:02:55;;;;;;;9.73;3.90;;;;;;;8.48;95.17;97498.22;6180880;28;20291;-43
2022/09/13 05:06:02;;;;;;;4.20;3.80;;;;;;;8.49;95.09;97502.50;6180048;28;20730;-43
2022/09/13 05:09:05;;;;;;;5.40;4.00;;;;;;;8.55;95.67;97501.25;6179522;28;20312;-44
2022/09/13 05:12:07;;;;;;;5.03;4.07;;;;;;;8.59;95.84;97489.50;6180162;28;20677;-43
2022/09/13 05:15:10;;;;;;;4.40;3.60;;;;;;;8.63;95.40;97506.75;6180320;28;20245;-43
2022/09/13 05:18:13;;;;;;;3.97;3.60;;;;;;;8.67;95.73;97500.31;6181062;28;20348;-42
2022/09/13 05:21:15;;;;;;;4.43;4.03;;;;;;;8.73;95.03;97502.47;6181390;28;20681;-43
2022/09/13 05:24:17;;;;;;;3.73;3.40;;;;;;;8.77;95.54;97503.09;6180282;28;20225;-43
2022/09/13 05:27:19;;;;;;;4.50;4.10;;;;;;;8.82;95.95;97507.03;6180558;28;20233;-43
2022/09/13 05:30:21;;;;;;;4.10;3.70;;;;;;;8.87;94.93;97502.28;6179937;28;20328;-42
2022/09/13 05:33:29;;;;;;;3.70;3.40;;;;;;;8.92;95.49;97512.44;6180917;28;20245;-43
2022/09/13 05:36:32;;;;;;;7.23;4.03;;;;;;;8.93;95.12;97508.84;6180530;28;20237;-43
2022/09/13 05:39:35;;;;;;;4.37;3.87;;;;;;;8.95;94.96;97506.94;6180169;28;20228;-43
2022/09/13 05:42:57;;;;;;;3.80;3.50;;;;;;;8.96;94.72;97507.78;6184871;28;20244;-44
2022/09/13 05:46:09;;;;;;;4.30;3.90;;;;;;;8.97;95.14;97512.94;6185317;28;20453;-44
2022/09/13 05:49:12;;;;;;;4.77;4.30;;;;;;;9.03;95.07;97519.53;6180509;28;20240;-42
2022/09/13 05:52:14;;;;;;;4.17;3.80;;;;;;;9.07;94.97;97518.34;6180200;28;20325;-44
2022/09/13 05:55:16;;;;;;;3.53;3.23;;;;;;;9.10;95.01;97512.81;6180054;28;20713;-42
2022/09/13 05:58:18;;;;;;;4.43;4.03;;;;;;;9.17;95.14;97506.97;6180039;28;20617;-42
2022/09/13 06:01:23;;;;;;;4.90;3.80;;;;;;;9.22;94.84;97504.81;6179677;28;20237;-43
2022/09/13 06:04:25;;;;;;;5.83;3.97;;;;;;;9.30;95.01;97500.75;6180772;28;20759;-42
2022/09/13 06:07:27;;;;;;;3.90;3.60;;;;;;;9.37;95.02;97500.16;6180049;28;20241;-42
2022/09/13 06:10:29;;;;;;;4.20;3.80;;;;;;;9.44;94.44;97495.25;6180300;28;20238;-44
2022/09/13 06:13:32;;;;;;;4.83;4.33;;;;;;;9.52;94.63;97506.84;6180142;28;20594;-43
2022/09/13 06:16:35;;;;;;;4.00;3.60;;;;;;;9.62;95.14;97497.25;6180568;28;20253;-42
2022/09/13 06:19:38;;;;;;;3.77;3.40;;;;;;;9.73;94.38;97487.66;6179920;28;20742;-42
2022/09/13 06:22:40;;;;;;;4.57;4.17;;;;;;;9.81;94.38;97493.16;6183788;28;20389;-44
2022/09/13 06:25:43;;;;;;;3.90;3.50;;;;;;;9.92;94.46;97488.69;6184096;28;20249;-42
2022/09/13 06:28:50;;;;;;;3.83;3.53;;;;;;;10.05;93.93;97480.63;6184972;28;20276;-42
2022/09/13 06:31:52;;;;;;;3.93;3.43;;;;;;;10.15;93.93;97473.66;6184957;28;20236;-43
2022/09/13 06:34:54;;;;;;;3.80;3.50;;;;;;;10.26;93.81;97480.72;6183966;28;20230;-42
2022/09/13 06:37:57;;;;;;;4.00;3.53;;;;;;;10.37;93.76;97482.47;6182190;28;20689;-43
2022/09/13 06:41:11;;;;;;;4.10;3.70;;;;;;;10.46;93.53;97474.63;6184639;28;20237;-43
2022/09/13 06:44:13;;;;;;;4.03;3.63;;;;;;;10.53;93.95;97483.72;6184865;28;20239;-43
2022/09/13 06:47:15;;;;;;;3.90;3.47;;;;;;;10.66;93.92;97487.00;6184297;28;20233;-42
2022/09/13 06:50:17;;;;;;;4.20;3.70;;;;;;;10.77;93.79;97486.09;6182474;28;20239;-44
2022/09/13 06:53:19;;;;;;;4.10;3.70;;;;;;;10.88;93.71;97478.09;6182899;28;20304;-42
2022/09/13 06:56:29;;;;;;;4.20;3.80;;;;;;;10.99;93.91;97487.75;6183705;28;20827;-42
2022/09/13 06:59:33;;;;;;;4.63;3.27;;;;;;;11.08;94.07;97486.97;6183382;28;20703;-43
2022/09/13 07:02:35;;;;;;;4.10;3.73;;;;;;;11.20;94.02;97493.00;6182797;28;20231;-42
2022/09/13 07:05:37;;;;;;;4.00;3.70;;;;;;;11.28;93.93;97488.72;6183902;28;20232;-43
2022/09/13 07:08:41;;;;;;;4.13;3.83;;;;;;;11.39;93.89;97483.34;6183028;28;20724;-43
2022/09/13 07:11:45;;;;;;;3.37;3.07;;;;;;;11.51;93.75;97475.34;6184071;28;20615;-42
2022/09/13 07:14:48;;;;;;;3.40;3.03;;;;;;;11.65;93.64;97472.34;6183657;28;20243;-42
2022/09/13 07:17:50;;;;;;;3.90;3.60;;;;;;;11.82;93.42;97474.34;6182788;28;20709;-42
2022/09/13 07:20:52;;;;;;;3.77;3.47;;;;;;;12.05;92.86;97474.97;6182959;28;20612;-43
2022/09/13 07:23:55;;;;;;;3.33;3.03;;;;;;;12.34;92.05;97469.69;6198511;28;20612;-42
2022/09/13 07:26:57;;;;;;;3.43;3.13;;;;;;;12.63;90.74;97467.03;6183807;28;20228;-42
2022/09/13 07:29:59;;;;;;;3.57;3.27;;;;;;;12.89;90.23;97470.72;6182895;28;20243;-43
2022/09/13 07:33:01;;;;;;;3.23;2.93;;;;;;;13.18;89.34;97489.22;6182354;28;20224;-44
2022/09/13 07:36:05;;;;;;;3.57;3.27;;;;;;;13.56;87.57;97475.03;6182708;28;20356;-42
2022/09/13 07:39:07;;;;;;;3.27;2.93;;;;;;;14.03;85.79;97483.69;6182743;28;20239;-43
2022/09/13 07:42:16;;;;;;;3.10;2.80;;;;;;;14.55;82.99;97486.56;6182908;28;20639;-43
2022/09/13 07:45:18;;;;;;;3.17;2.87;;;;;;;14.88;81.02;97491.13;6182939;28;20228;-43
2022/09/13 07:48:20;;;;;;;2.80;2.60;;;;;;;15.23;79.16;97482.25;6181710;28;20228;-43
2022/09/13 07:51:28;;;;;;;2.80;2.27;;;;;;;15.64;77.25;97480.66;6182321;28;20275;-42
2022/09/13 07:54:31;;;;;;;3.00;2.70;;;;;;;16.02;75.26;97484.63;6181381;28;20252;-43
2022/09/13 07:57:33;;;;;;;2.77;2.57;;;;;;;16.36;73.98;97478.41;6181674;28;20619;-41
2022/09/13 08:00:35;;;;;;;2.47;2.27;;;;;;;16.76;72.87;97474.97;6181727;28;20240;-42
2022/09/13 08:03:37;;;;;;;2.77;2.30;;;;;;;17.15;70.91;97467.09;6181884;28;20233;-40
2022/09/13 08:06:40;;;;;;;2.90;2.53;;;;;;;17.45;69.08;97465.53;6180989;28;20243;-40
2022/09/13 08:09:42;;;;;;;2.00;1.90;;;;;;;17.80;67.42;97464.25;6182249;28;20256;-40
2022/09/13 08:12:44;;;;;;;2.27;1.90;;;;;;;18.20;66.29;97473.88;6181514;28;20233;-40
2022/09/13 08:15:47;;;;;;;2.10;2.00;;;;;;;-144.22;100.00;60274.75;6181296;28;20243;-40
2022/09/13 08:18:53;;;;;;;1.90;1.80;;;;;;;19.15;100.00;60274.75;6181732;28;20684;-40
2022/09/13 08:21:55;;;;;;;3.03;2.50;;;;;;;-144.22;100.00;60274.75;6181845;28;20237;-40
2022/09/13 08:24:57;;;;;;;3.83;2.23;;;;;;;-144.22;100.00;60274.75;6181600;28;20323;-40
2022/09/13 08:28:00;;;;;;;2.17;2.00;;;;;;;-144.22;100.00;60274.75;6163124;28;20233;-40
2022/09/13 08:31:10;;;;;;;2.57;2.37;;;;;;;-144.22;100.00;60274.75;6181310;28;20347;-41
2022/09/13 08:34:14;;;;;;;2.67;1.97;;;;;;;-144.22;100.00;60274.75;6180820;28;20696;-42
2022/09/13 08:37:16;;;;;;;3.20;2.10;;;;;;;-144.22;100.00;60274.75;6181435;28;20746;-40
2022/09/13 08:40:20;;;;;;;2.40;2.13;;;;;;;20.31;100.00;60274.75;6181275;28;20545;-40
2022/09/13 08:43:48;;;;;;;2.40;2.20;;;;;;;-144.22;100.00;60274.75;6181238;28;20723;-40
2022/09/13 08:46:55;;;;;;;4.27;2.20;;;;;;;-144.22;100.00;60274.75;6180964;28;20248;-40
2022/09/13 08:50:09;;;;;;;1.97;1.87;;;;;;;-144.22;100.00;60274.75;6181185;28;20243;-40
2022/09/13 08:53:27;;;;;;;3.50;2.07;;;;;;;21.50;100.00;60274.75;6170020;28;20291;-40
2022/09/13 08:56:57;;;;;;;1.97;1.87;;;;;;;-144.22;100.00;60274.75;6170717;28;20241;-41
2022/09/13 09:00:23;;;;;;;2.17;1.97;;;;;;;-144.22;100.00;60274.75;6168917;28;20268;-41
2022/09/13 09:03:38;;;;;;;1.97;1.87;;;;;;;-144.22;100.00;60274.75;6180112;28;20268;-39
2022/09/13 09:06:42;;;;;;;2.13;1.93;;;;;;;-144.22;100.00;60274.75;6185801;28;20593;-39
2022/09/13 09:09:57;;;;;;;2.17;1.73;;;;;;;-144.22;100.00;60274.75;6183110;28;20504;-40
2022/09/13 09:13:08;;;;;;;3.10;1.80;;;;;;;-144.22;100.00;60274.75;6180487;28;20728;-40
2022/09/13 09:16:28;;;;;;;2.40;2.20;;;;;;;-144.22;100.00;60274.75;6180984;28;20336;-40
2022/09/13 09:19:36;;;;;;;1.97;1.87;;;;;;;-144.22;100.00;60274.75;6180765;28;20319;-42
2022/09/13 09:22:38;;;;;;;3.57;2.10;;;;;;;-144.22;100.00;60274.75;6179278;28;20627;-40
2022/09/13 09:25:40;;;;;;;3.50;2.03;;;;;;;-144.22;100.00;60274.75;6180696;28;20275;-40
2022/09/13 09:28:46;;;;;;;2.70;2.40;;;;;;;-144.22;100.00;60274.75;6180009;28;20237;-40
2022/09/13 09:32:19;;;;;;;2.53;2.13;;;;;;;-144.22;100.00;60274.75;6179326;28;20240;-40
2022/09/13 09:35:32;;;;;;;3.43;2.00;;;;;;;-144.22;100.00;60274.75;6180911;28;20772;-41
2022/09/13 09:38:40;;;;;;;2.87;2.40;;;;;;;63.28;100.00;60274.75;6179620;28;20382;-41
2022/09/13 09:41:43;;;;;;;2.00;1.77;;;;;;;-144.22;100.00;60274.75;6180827;28;20226;-40
2022/09/13 09:44:50;;;;;;;3.23;2.93;;;;;;;-144.22;100.00;60274.75;6181238;28;20327;-40
2022/09/13 09:47:55;;;;;;;3.33;2.50;;;;;;;-144.22;100.00;60274.75;6180061;28;20237;-40
2022/09/13 09:50:58;;;;;;;3.90;2.33;;;;;;;-144.22;100.00;60274.75;6180113;28;20597;-40
2022/09/13 09:54:05;;;;;;;3.40;2.60;;;;;;;-144.22;100.00;60274.75;6179755;28;20697;-40
2022/09/13 09:57:07;;;;;;;2.90;2.70;;;;;;;-144.22;100.00;60274.75;6183529;28;20244;-39
2022/09/13 10:00:11;;;;;;;2.80;2.60;;;;;;;-144.22;100.00;60274.75;6184886;28;20581;-40
2022/09/13 10:03:19;;;;;;;2.50;2.30;;;;;;;-144.22;100.00;60274.75;6182899;28;20240;-40
2022/09/13 10:06:24;;;;;;;3.13;2.23;;;;;;;-144.22;100.00;60274.75;6184378;28;20702;-40
2022/09/13 10:09:26;;;;;;;3.83;2.20;;;;;;;-144.22;100.00;60274.75;6184971;28;20692;-40
2022/09/13 10:12:33;;;;;;;2.67;2.10;;;;;;;-144.22;100.00;60274.75;6185317;28;20642;-40
2022/09/13 10:15:35;;;;;;;2.63;2.43;;;;;;;-144.22;100.00;60274.75;6184625;28;20308;-40
2022/09/13 10:18:37;;;;;;;2.57;2.37;;;;;;;-144.22;100.00;60274.75;6184059;28;20671;-40
2022/09/13 10:22:02;;;;;;;4.03;2.67;;;;;;;42.51;100.00;60274.75;6184054;28;20300;-39
2022/09/13 10:25:35;;;;;;;2.77;2.33;;;;;;;-144.22;100.00;60274.75;6184411;28;20590;-40
2022/09/13 10:28:46;;;;;;;3.63;1.90;;;;;;;-144.22;100.00;60274.75;6204446;28;20816;-40
2022/09/13 10:31:52;;;;;;;3.00;2.70;;;;;;;-144.22;100.00;60274.75;6204479;28;20311;-40
2022/09/13 10:34:59;;;;;;;2.88;2.40;;;;;;;-144.22;100.00;60274.75;6204793;28;20327;-41
2022/09/13 10:38:01;;;;;;;2.47;2.00;;;;;;;-144.22;100.00;60274.75;6204394;28;20623;-40
2022/09/13 10:41:20;;;;;;;3.20;2.00;;;;;;;-144.22;100.00;60274.75;6204676;28;20710;-41
2022/09/13 10:44:28;;;;;;;4.30;2.40;;;;;;;-144.22;100.00;60274.75;6203762;28;20242;-41
2022/09/13 10:47:38;;;;;;;3.47;2.05;;;;;;;25.73;100.00;60274.75;6204400;28;20316;-41
2022/09/13 10:50:58;;;;;;;2.58;2.30;;;;;;;-144.22;100.00;60274.75;6191403;28;20316;-40
2022/09/13 10:54:23;;;;;;;3.05;2.50;;;;;;;-144.22;100.00;60274.75;6195393;28;20310;-41
2022/09/13 10:57:32;;;;;;;3.92;2.78;;;;;;;-144.22;100.00;60274.75;6203043;28;20724;-41
2022/09/13 11:00:48;;;;;;;2.60;2.40;;;;;;;-144.22;100.00;60274.75;6203932;28;20303;-40
2022/09/13 11:04:28;;;;;;;2.80;2.60;;;;;;;-144.22;100.00;60274.75;6199614;28;20229;-40
2022/09/13 11:07:58;;;;;;;2.63;2.42;;;;;;;-144.22;100.00;60274.75;6182593;28;20755;-40
2022/09/13 11:11:26;;;;;;;3.47;2.40;;;;;;;63.28;100.00;60274.75;6183134;28;20260;-41
2022/09/13 11:15:19;;;;;;;2.97;2.13;;;;;;;-144.22;100.00;60274.75;6181274;28;20502;-40
2022/09/13 11:19:05;;;;;;;2.20;2.00;;;;;;;-144.22;100.00;60274.75;6203037;28;20251;-41
2022/09/13 11:22:13;;;;;;;3.35;2.80;;;;;;;32.13;100.00;60274.75;6131408;28;20231;-42
2022/09/13 11:25:18;;;;;;;3.15;2.17;;;;;;;-144.22;100.00;60274.75;6181657;28;20710;-40
2022/09/13 11:28:47;;;;;;;2.97;2.53;;;;;;;-144.22;100.00;60274.75;6182558;28;20233;-40
2022/09/13 11:32:19;;;;;;;2.35;2.15;;;;;;;-144.22;100.00;60274.75;6182546;28;20241;-40
2022/09/13 11:35:40;;;;;;;2.33;1.90;;;;;;;-144.22;100.00;60274.75;6180324;28;20292;-40
2022/09/13 11:38:57;;;;;;;2.72;2.53;;;;;;;-144.22;100.00;60274.75;6183081;28;20276;-42
2022/09/13 11:42:17;;;;;;;3.45;2.40;;;;;;;-144.22;100.00;60274.75;6182502;28;20242;-40
2022/09/13 11:45:24;;;;;;;4.53;2.67;;;;;;;-144.22;100.00;60274.75;6182359;28;20391;-40
2022/09/13 11:48:57;;;;;;;4.55;2.63;;;;;;;-144.22;100.00;60274.75;6182348;28;20257;-40
2022/09/13 11:52:35;;;;;;;3.20;2.45;;;;;;;-144.22;100.00;60274.75;6181924;28;20233;-41
2022/09/13 11:55:44;;;;;;;2.45;2.22;;;;;;;-144.22;100.00;60274.75;6183469;28;20736;-40
2022/09/13 11:58:46;;;;;;;3.92;1.95;;;;;;;-144.22;100.00;60274.75;6181796;28;20384;-41
2022/09/13 12:01:55;;;;;;;2.50;2.17;;;;;;;28.23;100.00;60274.75;6181851;28;20232;-40
2022/09/13 12:05:07;;;;;;;4.68;2.08;;;;;;;-144.22;100.00;60274.75;6180985;28;20291;-41
2022/09/13 12:08:30;;;;;;;2.58;2.38;;;;;;;32.13;100.00;60274.75;6182406;28;20541;-41
2022/09/13 12:11:41;;;;;;;2.47;2.28;;;;;;;-144.22;100.00;60274.75;6181718;28;20247;-40
2022/09/13 12:14:57;;;;;;;5.65;2.20;;;;;;;-144.22;100.00;60274.75;6181326;28;20230;-42
2022/09/13 12:18:05;;;;;;;3.08;2.10;;;;;;;28.23;100.00;60274.75;6181342;28;20238;-42
2022/09/13 12:21:14;;;;;;;3.95;2.38;;;;;;;-144.22;100.00;60274.75;6181831;28;20239;-41
2022/09/13 12:24:23;;;;;;;3.42;2.55;;;;;;;27.91;100.00;60274.75;6181315;28;20225;-41
2022/09/13 12:27:51;;;;;;;5.28;2.35;;;;;;;27.91;100.00;60274.75;6181358;28;20715;-40
2022/09/13 12:31:01;;;;;;;1.88;1.73;;;;;;;-144.22;100.00;60274.75;6181669;28;20652;-40
2022/09/13 12:34:07;;;;;;;2.70;2.15;;;;;;;29.53;100.00;60274.75;6181480;28;20580;-41
2022/09/13 12:37:15;;;;;;;3.35;2.10;;;;;;;-144.22;100.00;60274.75;6181065;28;20296;-40
2022/09/13 12:40:39;;;;;;;2.85;1.90;;;;;;;-144.22;100.00;60274.75;6181785;28;20768;-41
2022/09/13 12:44:11;;;;;;;2.75;2.22;;;;;;;29.53;100.00;60274.75;6180852;28;20607;-42
2022/09/13 12:47:22;;;;;;;3.03;2.55;;;;;;;-144.22;100.00;60274.75;6181162;28;20224;-41
2022/09/13 12:50:56;;;;;;;4.05;2.00;;;;;;;29.53;100.00;60274.75;6180538;28;20264;-40
2022/09/13 12:54:06;;;;;;;2.33;2.13;;;;;;;-144.22;100.00;60274.75;6178525;28;20276;-41
2022/09/13 12:57:29;;;;;;;2.50;2.30;;;;;;;29.15;100.00;60274.75;6179541;28;20348;-42
2022/09/13 13:00:41;;;;;;;2.88;1.92;;;;;;;-144.22;100.00;60274.75;6181681;28;20241;-40
2022/09/13 13:03:56;;;;;;;2.63;2.38;;;;;;;42.51;100.00;60274.75;6180418;28;20705;-41
2022/09/13 13:07:04;;;;;;;2.22;1.80;;;;;;;-144.22;100.00;60274.75;6180769;28;20229;-40
2022/09/13 13:10:22;;;;;;;2.42;1.88;;;;;;;-144.22;100.00;60274.75;6179619;28;20687;-40
2022/09/13 13:13:37;;;;;;;2.20;1.67;;;;;;;28.99;100.00;60274.75;6180894;28;20234;-41
2022/09/13 13:16:47;;;;;;;3.33;2.08;;;;;;;29.33;100.00;60274.75;6180466;28;20233;-40
2022/09/13 13:19:49;;;;;;;2.15;1.95;;;;;;;30.17;100.00;60274.75;6162007;28;20232;-41
2022/09/13 13:22:51;;;;;;;1.73;1.60;;;;;;;-144.22;100.00;60274.75;6180312;28;20728;-41
2022/09/13 13:26:12;;;;;;;1.23;1.10;;;;;;;-144.22;100.00;60274.75;6180423;28;20712;-40
2022/09/13 13:29:22;;;;;;;1.17;1.08;;;;;;;-144.22;100.00;60274.75;6181690;28;20225;-42
2022/09/13 13:32:24;;;;;;;0.85;0.85;;;;;;;37.77;18.87;97237.25;6186089;28;20233;-41
2022/09/13 13:35:33;;;;;;;1.23;1.00;;;;;;;38.68;17.87;97234.31;6184417;28;20235;-43
2022/09/13 13:38:44;;;;;;;2.75;1.35;;;;;;;38.69;17.88;97238.72;6185481;28;20367;-40
2022/09/13 13:42:02;;;;;;;1.95;1.70;;;;;;;37.58;19.12;97225.53;6184957;28;20236;-41
2022/09/13 13:45:18;;;;;;;1.48;1.20;;;;;;;38.51;17.34;97229.47;6185213;28;20596;-42
2022/09/13 13:48:38;;;;;;;3.22;1.70;;;;;;;38.31;18.66;97230.00;6184936;28;20732;-42
2022/09/13 13:51:40;;;;;;;2.38;1.90;;;;;;;36.83;20.62;97228.66;6184688;28;20229;-42
2022/09/13 13:54:48;;;;;;;1.92;1.73;;;;;;;36.49;20.99;97228.94;6185234;28;20702;-41
2022/09/13 13:58:15;;;;;;;2.38;1.80;;;;;;;34.13;24.88;97238.50;6184631;28;20229;-41
2022/09/13 14:01:24;;;;;;;2.40;1.73;;;;;;;31.56;28.60;97224.91;6184972;28;20609;-41
2022/09/13 14:04:58;;;;;;;2.85;1.90;;;;;;;-144.22;100.00;60274.75;6184484;28;20244;-42
2022/09/13 14:08:28;;;;;;;2.45;1.92;;;;;;;-144.22;100.00;60274.75;6167451;28;20284;-41
2022/09/13 14:12:06;;;;;;;1.65;1.55;;;;;;;-144.22;100.00;60274.75;6184161;28;20703;-42
2022/09/13 14:15:33;;;;;;;1.75;1.65;;;;;;;-144.22;100.00;60274.75;6183476;28;20319;-41
2022/09/13 14:18:53;;;;;;;1.60;1.50;;;;;;;-144.22;100.00;60274.75;6184903;28;20256;-40
2022/09/13 14:22:22;;;;;;;1.70;1.60;;;;;;;-144.22;100.00;60274.75;6184131;28;20225;-41
2022/09/13 14:25:25;;;;;;;1.60;1.50;;;;;;;-144.22;100.00;60274.75;6184420;28;20233;-43
2022/09/13 14:28:27;;;;;;;1.65;1.55;;;;;;;-144.22;100.00;60274.75;6184586;28;20243;-41
2022/09/13 14:31:29;;;;;;;2.25;2.05;;;;;;;-144.22;100.00;60274.75;6185241;28;20290;-41
2022/09/13 14:34:37;;;;;;;2.03;1.92;;;;;;;-144.22;100.00;60274.75;6183745;28;20267;-40
2022/09/13 14:37:39;;;;;;;1.95;1.75;;;;;;;-144.22;100.00;60274.75;6184780;28;20240;-41
2022/09/13 14:40:47;;;;;;;1.90;1.70;;;;;;;-144.22;100.00;60274.75;6183193;28;20327;-41
2022/09/13 14:43:49;;;;;;;2.10;1.70;;;;;;;-144.22;100.00;60274.75;6183652;28;20316;-44
2022/09/13 14:47:00;;;;;;;1.60;1.45;;;;;;;-144.22;100.00;60274.75;6183766;28;20762;-41
2022/09/13 14:50:10;;;;;;;2.10;1.90;;;;;;;-144.22;100.00;60274.75;6180902;28;20629;-41